sensor_id;sensor_type;location;lat;lon;timestamp;P1;durP1;ratioP1;P2;durP2;ratioP2
56943;SDS011;42848;42.524;12.052;2022-12-07T00:00:27;13.05;;;5.53;;
56943;SDS011;42848;42.524;12.052;2022-12-07T00:02:53;12.40;;;5.30;;
56943;SDS011;42848;42.524;12.052;2022-12-07T00:05:18;13.73;;;5.20;;
56943;SDS011;42848;42.524;12.052;2022-12-07T00:07:44;15.75;;;5.80;;
56943;SDS011;42848;42.524;12.052;2022-12-07T00:10:09;13.65;;;5.13;;
56943;SDS011;42848;42.524;12.052;2022-12-07T00:12:35;12.32;;;5.63;;
56943;SDS011;42848;42.524;12.052;2022-12-07T00:15:00;12.60;;;5.20;;
56943;SDS011;42848;42.524;12.052;2022-12-07T00:17:26;18.05;;;5.53;;
56943;SDS011;42848;42.524;12.052;2022-12-07T00:19:51;16.13;;;5.50;;
56943;SDS011;42848;42.524;12.052;2022-12-07T00:22:17;11.57;;;5.43;;
56943;SDS011;42848;42.524;12.052;2022-12-07T00:24:42;18.08;;;5.47;;
56943;SDS011;42848;42.524;12.052;2022-12-07T00:27:08;15.02;;;4.93;;
56943;SDS011;42848;42.524;12.052;2022-12-07T00:29:33;13.40;;;5.22;;
56943;SDS011;42848;42.524;12.052;2022-12-07T00:31:59;18.17;;;5.25;;
56943;SDS011;42848;42.524;12.052;2022-12-07T00:34:25;13.10;;;5.35;;
56943;SDS011;42848;42.524;12.052;2022-12-07T00:36:50;12.48;;;5.18;;
56943;SDS011;42848;42.524;12.052;2022-12-07T00:39:16;18.17;;;5.20;;
56943;SDS011;42848;42.524;12.052;2022-12-07T00:41:42;12.60;;;4.97;;
56943;SDS011;42848;42.524;12.052;2022-12-07T00:44:07;12.27;;;5.07;;
56943;SDS011;42848;42.524;12.052;2022-12-07T00:46:33;14.98;;;5.35;;
56943;SDS011;42848;42.524;12.052;2022-12-07T00:48:59;16.05;;;5.53;;
56943;SDS011;42848;42.524;12.052;2022-12-07T00:51:24;12.55;;;5.32;;
56943;SDS011;42848;42.524;12.052;2022-12-07T00:53:51;18.15;;;5.13;;
56943;SDS011;42848;42.524;12.052;2022-12-07T00:56:19;14.25;;;5.43;;
56943;SDS011;42848;42.524;12.052;2022-12-07T00:58:59;12.30;;;5.63;;
56943;SDS011;42848;42.524;12.052;2022-12-07T01:01:27;11.70;;;5.88;;
56943;SDS011;42848;42.524;12.052;2022-12-07T01:03:54;16.23;;;5.82;;
56943;SDS011;42848;42.524;12.052;2022-12-07T01:06:20;12.95;;;5.38;;
56943;SDS011;42848;42.524;12.052;2022-12-07T01:08:48;13.13;;;5.10;;
56943;SDS011;42848;42.524;12.052;2022-12-07T01:11:15;13.23;;;5.00;;
56943;SDS011;42848;42.524;12.052;2022-12-07T01:13:42;12.82;;;4.68;;
56943;SDS011;42848;42.524;12.052;2022-12-07T01:16:10;12.02;;;5.50;;
56943;SDS011;42848;42.524;12.052;2022-12-07T01:18:38;12.52;;;4.50;;
56943;SDS011;42848;42.524;12.052;2022-12-07T01:21:09;13.35;;;4.82;;
56943;SDS011;42848;42.524;12.052;2022-12-07T01:23:40;13.48;;;5.03;;
56943;SDS011;42848;42.524;12.052;2022-12-07T01:26:07;14.05;;;5.20;;
56943;SDS011;42848;42.524;12.052;2022-12-07T01:28:39;14.68;;;5.53;;
56943;SDS011;42848;42.524;12.052;2022-12-07T01:31:07;13.70;;;5.28;;
56943;SDS011;42848;42.524;12.052;2022-12-07T01:33:40;13.18;;;4.97;;
56943;SDS011;42848;42.524;12.052;2022-12-07T01:36:07;15.75;;;5.38;;
56943;SDS011;42848;42.524;12.052;2022-12-07T01:38:39;12.50;;;5.40;;
56943;SDS011;42848;42.524;12.052;2022-12-07T01:41:05;11.52;;;5.07;;
56943;SDS011;42848;42.524;12.052;2022-12-07T01:43:32;19.83;;;5.75;;
56943;SDS011;42848;42.524;12.052;2022-12-07T01:45:59;15.75;;;5.18;;
56943;SDS011;42848;42.524;12.052;2022-12-07T01:48:30;12.38;;;5.20;;
56943;SDS011;42848;42.524;12.052;2022-12-07T01:51:04;12.00;;;5.03;;
56943;SDS011;42848;42.524;12.052;2022-12-07T01:53:36;18.95;;;5.35;;
56943;SDS011;42848;42.524;12.052;2022-12-07T01:56:06;9.30;;;4.70;;
56943;SDS011;42848;42.524;12.052;2022-12-07T01:58:35;12.35;;;5.43;;
56943;SDS011;42848;42.524;12.052;2022-12-07T02:01:02;12.70;;;4.90;;
56943;SDS011;42848;42.524;12.052;2022-12-07T02:03:32;12.00;;;4.97;;
56943;SDS011;42848;42.524;12.052;2022-12-07T02:06:02;12.40;;;4.65;;
56943;SDS011;42848;42.524;12.052;2022-12-07T02:08:29;14.57;;;4.57;;
56943;SDS011;42848;42.524;12.052;2022-12-07T02:10:55;10.65;;;4.65;;
56943;SDS011;42848;42.524;12.052;2022-12-07T02:13:22;10.82;;;4.57;;
56943;SDS011;42848;42.524;12.052;2022-12-07T02:21:07;12.23;;;4.63;;
56943;SDS011;42848;42.524;12.052;2022-12-07T02:23:52;13.20;;;4.95;;
56943;SDS011;42848;42.524;12.052;2022-12-07T02:32:13;11.18;;;5.78;;
56943;SDS011;42848;42.524;12.052;2022-12-07T02:40:38;14.00;;;6.20;;
56943;SDS011;42848;42.524;12.052;2022-12-07T02:45:42;16.38;;;7.00;;
56943;SDS011;42848;42.524;12.052;2022-12-07T02:48:12;14.70;;;6.28;;
56943;SDS011;42848;42.524;12.052;2022-12-07T02:50:44;12.93;;;5.85;;
56943;SDS011;42848;42.524;12.052;2022-12-07T02:56:08;13.85;;;5.75;;
56943;SDS011;42848;42.524;12.052;2022-12-07T02:58:50;15.77;;;7.00;;
56943;SDS011;42848;42.524;12.052;2022-12-07T03:04:53;15.00;;;5.70;;
56943;SDS011;42848;42.524;12.052;2022-12-07T03:07:15;14.82;;;6.35;;
56943;SDS011;42848;42.524;12.052;2022-12-07T03:12:31;15.10;;;5.63;;
56943;SDS011;42848;42.524;12.052;2022-12-07T03:15:06;12.18;;;5.00;;
56943;SDS011;42848;42.524;12.052;2022-12-07T03:17:38;13.38;;;5.43;;
56943;SDS011;42848;42.524;12.052;2022-12-07T03:20:07;11.13;;;6.05;;
56943;SDS011;42848;42.524;12.052;2022-12-07T03:22:37;13.98;;;5.95;;
56943;SDS011;42848;42.524;12.052;2022-12-07T03:25:09;14.35;;;5.18;;
56943;SDS011;42848;42.524;12.052;2022-12-07T03:35:48;16.90;;;6.90;;
56943;SDS011;42848;42.524;12.052;2022-12-07T03:38:38;20.08;;;7.20;;
56943;SDS011;42848;42.524;12.052;2022-12-07T03:41:18;16.58;;;6.80;;
56943;SDS011;42848;42.524;12.052;2022-12-07T03:43:48;14.90;;;6.03;;
56943;SDS011;42848;42.524;12.052;2022-12-07T03:54:27;11.07;;;4.70;;
56943;SDS011;42848;42.524;12.052;2022-12-07T03:56:58;11.25;;;5.00;;
56943;SDS011;42848;42.524;12.052;2022-12-07T03:59:24;13.73;;;4.85;;
56943;SDS011;42848;42.524;12.052;2022-12-07T04:01:55;14.98;;;5.05;;
56943;SDS011;42848;42.524;12.052;2022-12-07T04:04:24;14.05;;;4.53;;
56943;SDS011;42848;42.524;12.052;2022-12-07T04:06:50;11.20;;;4.53;;
56943;SDS011;42848;42.524;12.052;2022-12-07T04:09:16;14.80;;;4.32;;
56943;SDS011;42848;42.524;12.052;2022-12-07T04:11:42;8.10;;;4.20;;
56943;SDS011;42848;42.524;12.052;2022-12-07T04:14:08;10.70;;;4.10;;
56943;SDS011;42848;42.524;12.052;2022-12-07T04:19:16;12.55;;;4.13;;
56943;SDS011;42848;42.524;12.052;2022-12-07T04:21:44;11.40;;;3.92;;
56943;SDS011;42848;42.524;12.052;2022-12-07T04:24:09;11.32;;;4.32;;
56943;SDS011;42848;42.524;12.052;2022-12-07T04:26:37;14.38;;;4.55;;
56943;SDS011;42848;42.524;12.052;2022-12-07T04:29:03;11.15;;;4.63;;
56943;SDS011;42848;42.524;12.052;2022-12-07T04:31:29;16.23;;;6.10;;
56943;SDS011;42848;42.524;12.052;2022-12-07T04:33:55;13.20;;;5.07;;
56943;SDS011;42848;42.524;12.052;2022-12-07T04:36:20;14.00;;;5.00;;
56943;SDS011;42848;42.524;12.052;2022-12-07T04:38:46;14.68;;;4.53;;
56943;SDS011;42848;42.524;12.052;2022-12-07T04:41:12;11.95;;;5.13;;
56943;SDS011;42848;42.524;12.052;2022-12-07T04:43:38;12.55;;;5.40;;
56943;SDS011;42848;42.524;12.052;2022-12-07T04:46:04;11.48;;;4.90;;
56943;SDS011;42848;42.524;12.052;2022-12-07T04:48:29;10.98;;;4.60;;
56943;SDS011;42848;42.524;12.052;2022-12-07T04:50:55;12.68;;;5.53;;
56943;SDS011;42848;42.524;12.052;2022-12-07T04:53:22;12.95;;;6.10;;
56943;SDS011;42848;42.524;12.052;2022-12-07T04:55:48;12.38;;;4.80;;
56943;SDS011;42848;42.524;12.052;2022-12-07T04:58:14;9.82;;;4.68;;
56943;SDS011;42848;42.524;12.052;2022-12-07T05:00:39;11.73;;;5.18;;
56943;SDS011;42848;42.524;12.052;2022-12-07T05:03:06;11.98;;;4.72;;
56943;SDS011;42848;42.524;12.052;2022-12-07T05:05:31;9.85;;;4.43;;
56943;SDS011;42848;42.524;12.052;2022-12-07T05:07:57;11.73;;;4.60;;
56943;SDS011;42848;42.524;12.052;2022-12-07T05:10:23;14.98;;;7.85;;
56943;SDS011;42848;42.524;12.052;2022-12-07T05:12:48;13.18;;;5.07;;
56943;SDS011;42848;42.524;12.052;2022-12-07T05:15:14;14.25;;;5.45;;
56943;SDS011;42848;42.524;12.052;2022-12-07T05:17:41;12.18;;;5.50;;
56943;SDS011;42848;42.524;12.052;2022-12-07T05:20:07;11.73;;;4.78;;
56943;SDS011;42848;42.524;12.052;2022-12-07T05:22:33;11.57;;;5.60;;
56943;SDS011;42848;42.524;12.052;2022-12-07T05:24:59;15.27;;;5.95;;
56943;SDS011;42848;42.524;12.052;2022-12-07T05:27:25;11.88;;;5.20;;
56943;SDS011;42848;42.524;12.052;2022-12-07T05:29:51;12.60;;;5.63;;
56943;SDS011;42848;42.524;12.052;2022-12-07T05:32:17;11.98;;;5.82;;
56943;SDS011;42848;42.524;12.052;2022-12-07T05:34:43;13.65;;;5.88;;
56943;SDS011;42848;42.524;12.052;2022-12-07T05:37:08;12.95;;;6.28;;
56943;SDS011;42848;42.524;12.052;2022-12-07T05:39:34;12.02;;;6.30;;
56943;SDS011;42848;42.524;12.052;2022-12-07T05:42:00;17.30;;;7.97;;
56943;SDS011;42848;42.524;12.052;2022-12-07T05:44:38;16.17;;;7.28;;
56943;SDS011;42848;42.524;12.052;2022-12-07T05:47:09;16.60;;;7.20;;
56943;SDS011;42848;42.524;12.052;2022-12-07T05:49:35;15.98;;;7.40;;
56943;SDS011;42848;42.524;12.052;2022-12-07T05:52:01;19.55;;;7.20;;
56943;SDS011;42848;42.524;12.052;2022-12-07T05:54:27;17.15;;;7.20;;
56943;SDS011;42848;42.524;12.052;2022-12-07T05:56:53;16.35;;;8.05;;
56943;SDS011;42848;42.524;12.052;2022-12-07T05:59:19;16.60;;;7.22;;
56943;SDS011;42848;42.524;12.052;2022-12-07T06:01:48;16.70;;;8.68;;
56943;SDS011;42848;42.524;12.052;2022-12-07T06:04:17;18.33;;;8.80;;
56943;SDS011;42848;42.524;12.052;2022-12-07T06:06:44;20.08;;;8.73;;
56943;SDS011;42848;42.524;12.052;2022-12-07T06:09:10;20.15;;;8.48;;
56943;SDS011;42848;42.524;12.052;2022-12-07T06:11:37;17.55;;;8.50;;
56943;SDS011;42848;42.524;12.052;2022-12-07T06:16:47;20.13;;;7.90;;
56943;SDS011;42848;42.524;12.052;2022-12-07T06:19:13;15.77;;;7.38;;
56943;SDS011;42848;42.524;12.052;2022-12-07T06:21:39;18.48;;;8.43;;
56943;SDS011;42848;42.524;12.052;2022-12-07T06:24:04;19.63;;;8.60;;
56943;SDS011;42848;42.524;12.052;2022-12-07T06:26:30;23.55;;;8.82;;
56943;SDS011;42848;42.524;12.052;2022-12-07T06:28:56;18.00;;;7.95;;
56943;SDS011;42848;42.524;12.052;2022-12-07T06:31:22;17.42;;;8.00;;
56943;SDS011;42848;42.524;12.052;2022-12-07T06:33:47;20.20;;;8.23;;
56943;SDS011;42848;42.524;12.052;2022-12-07T06:36:13;16.98;;;8.30;;
56943;SDS011;42848;42.524;12.052;2022-12-07T06:38:39;16.98;;;8.80;;
56943;SDS011;42848;42.524;12.052;2022-12-07T06:41:04;23.27;;;8.85;;
56943;SDS011;42848;42.524;12.052;2022-12-07T06:43:30;19.45;;;8.30;;
56943;SDS011;42848;42.524;12.052;2022-12-07T06:45:56;20.48;;;9.48;;
56943;SDS011;42848;42.524;12.052;2022-12-07T06:48:21;16.17;;;8.63;;
56943;SDS011;42848;42.524;12.052;2022-12-07T06:50:47;21.08;;;8.50;;
56943;SDS011;42848;42.524;12.052;2022-12-07T06:53:13;24.13;;;9.55;;
56943;SDS011;42848;42.524;12.052;2022-12-07T06:55:39;32.35;;;18.77;;
56943;SDS011;42848;42.524;12.052;2022-12-07T06:58:04;36.15;;;23.67;;
56943;SDS011;42848;42.524;12.052;2022-12-07T07:00:30;22.70;;;12.25;;
56943;SDS011;42848;42.524;12.052;2022-12-07T07:02:56;23.98;;;13.40;;
56943;SDS011;42848;42.524;12.052;2022-12-07T07:05:22;16.98;;;8.35;;
56943;SDS011;42848;42.524;12.052;2022-12-07T07:07:50;26.10;;;13.93;;
56943;SDS011;42848;42.524;12.052;2022-12-07T07:10:16;24.52;;;14.38;;
56943;SDS011;42848;42.524;12.052;2022-12-07T07:12:42;23.08;;;10.73;;
56943;SDS011;42848;42.524;12.052;2022-12-07T07:15:08;30.13;;;18.58;;
56943;SDS011;42848;42.524;12.052;2022-12-07T07:17:34;34.10;;;19.10;;
56943;SDS011;42848;42.524;12.052;2022-12-07T07:20:00;38.17;;;25.27;;
56943;SDS011;42848;42.524;12.052;2022-12-07T07:22:26;34.70;;;21.75;;
56943;SDS011;42848;42.524;12.052;2022-12-07T07:24:52;30.55;;;17.92;;
56943;SDS011;42848;42.524;12.052;2022-12-07T07:27:17;24.67;;;10.55;;
56943;SDS011;42848;42.524;12.052;2022-12-07T07:29:43;31.58;;;12.05;;
56943;SDS011;42848;42.524;12.052;2022-12-07T07:32:09;24.50;;;10.80;;
56943;SDS011;42848;42.524;12.052;2022-12-07T07:34:34;26.75;;;14.38;;
56943;SDS011;42848;42.524;12.052;2022-12-07T07:37:00;31.35;;;20.30;;
56943;SDS011;42848;42.524;12.052;2022-12-07T07:39:26;20.85;;;11.45;;
56943;SDS011;42848;42.524;12.052;2022-12-07T07:41:51;25.88;;;14.77;;
56943;SDS011;42848;42.524;12.052;2022-12-07T07:44:17;26.15;;;14.02;;
56943;SDS011;42848;42.524;12.052;2022-12-07T07:46:43;25.48;;;13.70;;
56943;SDS011;42848;42.524;12.052;2022-12-07T07:49:09;23.60;;;11.93;;
56943;SDS011;42848;42.524;12.052;2022-12-07T07:51:35;21.08;;;11.50;;
56943;SDS011;42848;42.524;12.052;2022-12-07T07:54:02;19.63;;;8.80;;
56943;SDS011;42848;42.524;12.052;2022-12-07T07:56:28;18.80;;;9.00;;
56943;SDS011;42848;42.524;12.052;2022-12-07T07:58:54;22.88;;;8.77;;
56943;SDS011;42848;42.524;12.052;2022-12-07T08:01:20;22.92;;;11.10;;
56943;SDS011;42848;42.524;12.052;2022-12-07T08:03:46;22.52;;;12.10;;
56943;SDS011;42848;42.524;12.052;2022-12-07T08:06:12;18.25;;;9.88;;
56943;SDS011;42848;42.524;12.052;2022-12-07T08:08:38;19.98;;;8.68;;
56943;SDS011;42848;42.524;12.052;2022-12-07T08:11:07;20.15;;;9.50;;
56943;SDS011;42848;42.524;12.052;2022-12-07T08:13:33;23.30;;;9.85;;
56943;SDS011;42848;42.524;12.052;2022-12-07T08:16:03;25.40;;;10.48;;
56943;SDS011;42848;42.524;12.052;2022-12-07T08:18:37;27.27;;;11.65;;
56943;SDS011;42848;42.524;12.052;2022-12-07T08:21:04;20.73;;;11.63;;
56943;SDS011;42848;42.524;12.052;2022-12-07T08:23:30;25.05;;;12.35;;
56943;SDS011;42848;42.524;12.052;2022-12-07T08:26:03;25.40;;;12.98;;
56943;SDS011;42848;42.524;12.052;2022-12-07T08:28:31;28.98;;;11.75;;
56943;SDS011;42848;42.524;12.052;2022-12-07T08:31:04;21.17;;;9.23;;
56943;SDS011;42848;42.524;12.052;2022-12-07T08:33:32;19.33;;;9.05;;
56943;SDS011;42848;42.524;12.052;2022-12-07T08:36:02;20.98;;;9.30;;
56943;SDS011;42848;42.524;12.052;2022-12-07T08:38:29;17.83;;;8.60;;
56943;SDS011;42848;42.524;12.052;2022-12-07T08:40:58;18.60;;;8.60;;
56943;SDS011;42848;42.524;12.052;2022-12-07T08:43:24;20.00;;;8.32;;
56943;SDS011;42848;42.524;12.052;2022-12-07T08:46:25;20.13;;;8.80;;
56943;SDS011;42848;42.524;12.052;2022-12-07T08:49:08;19.55;;;9.27;;
56943;SDS011;42848;42.524;12.052;2022-12-07T08:51:41;17.45;;;9.38;;
56943;SDS011;42848;42.524;12.052;2022-12-07T08:54:09;24.45;;;10.70;;
56943;SDS011;42848;42.524;12.052;2022-12-07T08:56:38;18.38;;;9.27;;
56943;SDS011;42848;42.524;12.052;2022-12-07T08:59:04;18.98;;;9.25;;
56943;SDS011;42848;42.524;12.052;2022-12-07T09:01:30;20.15;;;8.73;;
56943;SDS011;42848;42.524;12.052;2022-12-07T09:03:57;20.85;;;9.80;;
56943;SDS011;42848;42.524;12.052;2022-12-07T09:06:23;25.13;;;13.23;;
56943;SDS011;42848;42.524;12.052;2022-12-07T09:08:50;29.20;;;16.67;;
56943;SDS011;42848;42.524;12.052;2022-12-07T09:11:19;33.13;;;19.00;;
56943;SDS011;42848;42.524;12.052;2022-12-07T09:13:45;32.55;;;16.73;;
56943;SDS011;42848;42.524;12.052;2022-12-07T09:16:10;29.50;;;16.65;;
56943;SDS011;42848;42.524;12.052;2022-12-07T09:18:36;24.15;;;10.77;;
56943;SDS011;42848;42.524;12.052;2022-12-07T09:21:03;20.50;;;8.82;;
56943;SDS011;42848;42.524;12.052;2022-12-07T09:23:29;22.70;;;11.25;;
56943;SDS011;42848;42.524;12.052;2022-12-07T09:25:54;21.05;;;9.60;;
56943;SDS011;42848;42.524;12.052;2022-12-07T09:28:23;22.30;;;8.88;;
56943;SDS011;42848;42.524;12.052;2022-12-07T09:30:49;19.83;;;7.70;;
56943;SDS011;42848;42.524;12.052;2022-12-07T09:33:15;25.77;;;15.82;;
56943;SDS011;42848;42.524;12.052;2022-12-07T09:35:44;22.98;;;12.05;;
56943;SDS011;42848;42.524;12.052;2022-12-07T09:38:11;18.40;;;7.65;;
56943;SDS011;42848;42.524;12.052;2022-12-07T09:40:37;20.88;;;8.00;;
56943;SDS011;42848;42.524;12.052;2022-12-07T09:43:02;17.15;;;6.82;;
56943;SDS011;42848;42.524;12.052;2022-12-07T09:45:32;17.08;;;6.32;;
56943;SDS011;42848;42.524;12.052;2022-12-07T09:48:00;16.27;;;7.80;;
56943;SDS011;42848;42.524;12.052;2022-12-07T09:50:28;17.73;;;7.00;;
56943;SDS011;42848;42.524;12.052;2022-12-07T09:53:00;14.63;;;6.53;;
56943;SDS011;42848;42.524;12.052;2022-12-07T09:55:39;15.35;;;6.55;;
56943;SDS011;42848;42.524;12.052;2022-12-07T09:58:08;14.38;;;5.60;;
56943;SDS011;42848;42.524;12.052;2022-12-07T10:00:44;10.90;;;5.65;;
56943;SDS011;42848;42.524;12.052;2022-12-07T10:03:10;20.25;;;6.63;;
56943;SDS011;42848;42.524;12.052;2022-12-07T10:05:41;12.48;;;5.60;;
56943;SDS011;42848;42.524;12.052;2022-12-07T10:08:13;12.30;;;5.30;;
56943;SDS011;42848;42.524;12.052;2022-12-07T10:10:42;13.60;;;5.15;;
56943;SDS011;42848;42.524;12.052;2022-12-07T10:13:10;12.93;;;5.22;;
56943;SDS011;42848;42.524;12.052;2022-12-07T10:15:42;10.60;;;5.10;;
56943;SDS011;42848;42.524;12.052;2022-12-07T10:18:19;20.13;;;7.53;;
56943;SDS011;42848;42.524;12.052;2022-12-07T10:20:59;17.40;;;6.80;;
56943;SDS011;42848;42.524;12.052;2022-12-07T10:23:37;13.60;;;6.25;;
56943;SDS011;42848;42.524;12.052;2022-12-07T10:26:21;13.07;;;5.43;;
56943;SDS011;42848;42.524;12.052;2022-12-07T10:28:59;16.47;;;5.20;;
56943;SDS011;42848;42.524;12.052;2022-12-07T10:31:27;15.13;;;6.07;;
56943;SDS011;42848;42.524;12.052;2022-12-07T10:33:54;15.43;;;5.65;;
56943;SDS011;42848;42.524;12.052;2022-12-07T10:39:04;15.18;;;6.50;;
56943;SDS011;42848;42.524;12.052;2022-12-07T10:41:56;17.60;;;7.20;;
56943;SDS011;42848;42.524;12.052;2022-12-07T10:44:25;15.48;;;6.80;;
56943;SDS011;42848;42.524;12.052;2022-12-07T10:58:20;19.83;;;9.65;;
56943;SDS011;42848;42.524;12.052;2022-12-07T11:06:59;12.80;;;6.95;;
56943;SDS011;42848;42.524;12.052;2022-12-07T11:09:39;13.77;;;6.90;;
56943;SDS011;42848;42.524;12.052;2022-12-07T11:18:22;15.93;;;7.30;;
56943;SDS011;42848;42.524;12.052;2022-12-07T11:37:18;30.77;;;13.93;;
56943;SDS011;42848;42.524;12.052;2022-12-07T11:39:51;21.40;;;10.25;;
56943;SDS011;42848;42.524;12.052;2022-12-07T11:42:25;17.90;;;8.05;;
56943;SDS011;42848;42.524;12.052;2022-12-07T11:44:59;20.20;;;8.05;;
56943;SDS011;42848;42.524;12.052;2022-12-07T11:47:58;27.98;;;15.43;;
56943;SDS011;42848;42.524;12.052;2022-12-07T11:50:50;20.48;;;8.45;;
56943;SDS011;42848;42.524;12.052;2022-12-07T11:56:14;15.80;;;6.70;;
56943;SDS011;42848;42.524;12.052;2022-12-07T11:58:45;22.50;;;9.40;;
56943;SDS011;42848;42.524;12.052;2022-12-07T12:06:38;20.75;;;10.85;;
56943;SDS011;42848;42.524;12.052;2022-12-07T12:09:15;22.13;;;12.77;;
56943;SDS011;42848;42.524;12.052;2022-12-07T12:15:00;20.45;;;9.80;;
56943;SDS011;42848;42.524;12.052;2022-12-07T12:22:43;13.60;;;6.03;;
56943;SDS011;42848;42.524;12.052;2022-12-07T12:25:22;20.90;;;7.05;;
56943;SDS011;42848;42.524;12.052;2022-12-07T12:27:53;13.13;;;5.63;;
56943;SDS011;42848;42.524;12.052;2022-12-07T12:30:43;15.80;;;6.65;;
56943;SDS011;42848;42.524;12.052;2022-12-07T12:33:16;15.75;;;7.97;;
56943;SDS011;42848;42.524;12.052;2022-12-07T12:38:48;15.40;;;7.85;;
56943;SDS011;42848;42.524;12.052;2022-12-07T12:46:47;16.42;;;6.15;;
56943;SDS011;42848;42.524;12.052;2022-12-07T12:51:55;15.82;;;6.07;;
56943;SDS011;42848;42.524;12.052;2022-12-07T12:54:32;20.17;;;6.20;;
56943;SDS011;42848;42.524;12.052;2022-12-07T13:05:14;8.38;;;4.50;;
56943;SDS011;42848;42.524;12.052;2022-12-07T13:10:29;23.17;;;12.88;;
56943;SDS011;42848;42.524;12.052;2022-12-07T13:13:04;38.95;;;25.98;;
56943;SDS011;42848;42.524;12.052;2022-12-07T13:15:38;23.75;;;16.23;;
56943;SDS011;42848;42.524;12.052;2022-12-07T13:20:59;24.27;;;16.00;;
56943;SDS011;42848;42.524;12.052;2022-12-07T13:23:29;32.03;;;24.13;;
56943;SDS011;42848;42.524;12.052;2022-12-07T13:28:26;19.25;;;12.27;;
56943;SDS011;42848;42.524;12.052;2022-12-07T13:33:38;17.60;;;9.57;;
56943;SDS011;42848;42.524;12.052;2022-12-07T13:36:04;14.85;;;8.75;;
56943;SDS011;42848;42.524;12.052;2022-12-07T13:38:35;14.75;;;9.00;;
56943;SDS011;42848;42.524;12.052;2022-12-07T13:41:11;16.70;;;10.27;;
56943;SDS011;42848;42.524;12.052;2022-12-07T13:43:46;29.40;;;17.50;;
56943;SDS011;42848;42.524;12.052;2022-12-07T13:46:24;25.73;;;15.10;;
56943;SDS011;42848;42.524;12.052;2022-12-07T13:48:57;24.48;;;13.80;;
56943;SDS011;42848;42.524;12.052;2022-12-07T13:51:27;27.75;;;16.25;;
56943;SDS011;42848;42.524;12.052;2022-12-07T13:53:54;22.13;;;14.02;;
56943;SDS011;42848;42.524;12.052;2022-12-07T13:56:27;21.13;;;13.65;;
56943;SDS011;42848;42.524;12.052;2022-12-07T13:58:58;17.45;;;12.23;;
56943;SDS011;42848;42.524;12.052;2022-12-07T14:01:24;29.73;;;18.35;;
56943;SDS011;42848;42.524;12.052;2022-12-07T14:03:51;22.17;;;14.35;;
56943;SDS011;42848;42.524;12.052;2022-12-07T14:06:19;24.83;;;15.77;;
56943;SDS011;42848;42.524;12.052;2022-12-07T14:08:50;34.97;;;22.00;;
56943;SDS011;42848;42.524;12.052;2022-12-07T14:11:30;28.13;;;17.63;;
56943;SDS011;42848;42.524;12.052;2022-12-07T14:13:58;26.98;;;17.50;;
56943;SDS011;42848;42.524;12.052;2022-12-07T14:16:30;31.23;;;20.30;;
56943;SDS011;42848;42.524;12.052;2022-12-07T14:18:57;38.40;;;24.90;;
56943;SDS011;42848;42.524;12.052;2022-12-07T14:21:28;39.40;;;26.88;;
56943;SDS011;42848;42.524;12.052;2022-12-07T14:24:02;38.38;;;25.35;;
56943;SDS011;42848;42.524;12.052;2022-12-07T14:26:46;44.17;;;26.83;;
56943;SDS011;42848;42.524;12.052;2022-12-07T14:31:52;39.33;;;26.13;;
56943;SDS011;42848;42.524;12.052;2022-12-07T14:34:22;33.60;;;22.20;;
56943;SDS011;42848;42.524;12.052;2022-12-07T14:36:48;29.55;;;20.55;;
56943;SDS011;42848;42.524;12.052;2022-12-07T14:39:14;24.17;;;15.50;;
56943;SDS011;42848;42.524;12.052;2022-12-07T14:41:40;36.90;;;21.35;;
56943;SDS011;42848;42.524;12.052;2022-12-07T14:44:22;33.67;;;19.83;;
56943;SDS011;42848;42.524;12.052;2022-12-07T14:46:49;35.75;;;19.35;;
56943;SDS011;42848;42.524;12.052;2022-12-07T14:49:15;24.95;;;16.80;;
56943;SDS011;42848;42.524;12.052;2022-12-07T14:51:41;33.67;;;20.15;;
56943;SDS011;42848;42.524;12.052;2022-12-07T14:54:18;49.13;;;29.15;;
56943;SDS011;42848;42.524;12.052;2022-12-07T14:56:45;32.53;;;21.50;;
56943;SDS011;42848;42.524;12.052;2022-12-07T14:59:15;32.65;;;20.38;;
56943;SDS011;42848;42.524;12.052;2022-12-07T15:01:41;29.40;;;20.83;;
56943;SDS011;42848;42.524;12.052;2022-12-07T15:04:07;21.17;;;13.45;;
56943;SDS011;42848;42.524;12.052;2022-12-07T15:06:34;20.98;;;13.27;;
56943;SDS011;42848;42.524;12.052;2022-12-07T15:09:00;23.77;;;13.30;;
56943;SDS011;42848;42.524;12.052;2022-12-07T15:11:27;23.73;;;14.60;;
56943;SDS011;42848;42.524;12.052;2022-12-07T15:13:53;46.25;;;26.08;;
56943;SDS011;42848;42.524;12.052;2022-12-07T15:16:38;36.75;;;21.30;;
56943;SDS011;42848;42.524;12.052;2022-12-07T15:19:08;25.30;;;17.35;;
56943;SDS011;42848;42.524;12.052;2022-12-07T15:21:53;38.60;;;23.77;;
56943;SDS011;42848;42.524;12.052;2022-12-07T15:24:19;41.72;;;25.35;;
56943;SDS011;42848;42.524;12.052;2022-12-07T15:26:45;41.40;;;27.02;;
56943;SDS011;42848;42.524;12.052;2022-12-07T15:29:11;33.55;;;22.25;;
56943;SDS011;42848;42.524;12.052;2022-12-07T15:31:37;23.40;;;14.70;;
56943;SDS011;42848;42.524;12.052;2022-12-07T15:34:03;20.92;;;12.00;;
56943;SDS011;42848;42.524;12.052;2022-12-07T15:36:30;21.33;;;11.95;;
56943;SDS011;42848;42.524;12.052;2022-12-07T15:38:58;13.10;;;8.40;;
56943;SDS011;42848;42.524;12.052;2022-12-07T15:41:24;16.48;;;9.77;;
56943;SDS011;42848;42.524;12.052;2022-12-07T15:43:49;15.80;;;9.23;;
56943;SDS011;42848;42.524;12.052;2022-12-07T15:46:35;19.85;;;10.48;;
56943;SDS011;42848;42.524;12.052;2022-12-07T15:49:02;21.92;;;14.90;;
56943;SDS011;42848;42.524;12.052;2022-12-07T15:51:29;40.97;;;23.58;;
56943;SDS011;42848;42.524;12.052;2022-12-07T15:53:56;23.95;;;15.90;;
56943;SDS011;42848;42.524;12.052;2022-12-07T15:56:23;25.50;;;16.00;;
56943;SDS011;42848;42.524;12.052;2022-12-07T15:58:48;22.73;;;14.02;;
56943;SDS011;42848;42.524;12.052;2022-12-07T16:01:15;21.30;;;15.65;;
56943;SDS011;42848;42.524;12.052;2022-12-07T16:03:42;24.23;;;16.38;;
56943;SDS011;42848;42.524;12.052;2022-12-07T16:06:09;25.98;;;17.05;;
56943;SDS011;42848;42.524;12.052;2022-12-07T16:08:35;21.80;;;14.35;;
56943;SDS011;42848;42.524;12.052;2022-12-07T16:11:04;31.90;;;20.48;;
56943;SDS011;42848;42.524;12.052;2022-12-07T16:13:30;53.00;;;35.50;;
56943;SDS011;42848;42.524;12.052;2022-12-07T16:15:56;20.33;;;12.18;;
56943;SDS011;42848;42.524;12.052;2022-12-07T16:18:22;14.20;;;8.07;;
56943;SDS011;42848;42.524;12.052;2022-12-07T16:20:48;15.10;;;7.95;;
56943;SDS011;42848;42.524;12.052;2022-12-07T16:23:14;19.98;;;11.00;;
56943;SDS011;42848;42.524;12.052;2022-12-07T16:25:40;28.10;;;20.52;;
56943;SDS011;42848;42.524;12.052;2022-12-07T16:28:06;38.30;;;28.90;;
56943;SDS011;42848;42.524;12.052;2022-12-07T16:30:31;27.40;;;18.73;;
56943;SDS011;42848;42.524;12.052;2022-12-07T16:32:57;22.08;;;14.98;;
56943;SDS011;42848;42.524;12.052;2022-12-07T16:35:23;23.40;;;14.50;;
56943;SDS011;42848;42.524;12.052;2022-12-07T16:37:48;19.95;;;12.80;;
56943;SDS011;42848;42.524;12.052;2022-12-07T16:40:14;16.27;;;11.20;;
56943;SDS011;42848;42.524;12.052;2022-12-07T16:42:39;20.42;;;14.00;;
56943;SDS011;42848;42.524;12.052;2022-12-07T16:45:05;22.88;;;15.38;;
56943;SDS011;42848;42.524;12.052;2022-12-07T16:47:31;28.83;;;18.92;;